createdAt,value
2018-01-26T00:00:06.658Z,43.80
2018-01-26T00:01:06.653Z,43.00
2018-01-26T00:02:06.652Z,36.70
2018-01-26T00:03:06.651Z,36.30
2018-01-26T00:04:06.648Z,37.80
2018-01-26T00:05:06.644Z,32.20
2018-01-26T00:06:06.646Z,36.30
2018-01-26T00:07:06.639Z,33.80
2018-01-26T00:08:06.637Z,31.40
2018-01-26T00:09:06.636Z,32.10
2018-01-26T00:10:06.635Z,39.50
2018-01-26T00:11:06.628Z,34.60
2018-01-26T00:12:06.623Z,33.90
2018-01-26T00:13:06.624Z,35.30
2018-01-26T00:14:06.622Z,33.30
2018-01-26T00:15:06.617Z,27.50
2018-01-26T00:16:06.619Z,28.30
2018-01-26T00:17:06.613Z,34.50
2018-01-26T00:18:06.607Z,35.10
2018-01-26T00:19:06.606Z,35.20
2018-01-26T00:20:06.604Z,35.00
2018-01-26T00:21:06.600Z,35.90
2018-01-26T00:22:06.599Z,35.70
2018-01-26T00:23:06.595Z,37.30
2018-01-26T00:24:06.592Z,40.10
2018-01-26T00:25:06.590Z,38.70
2018-01-26T00:26:06.587Z,40.90
2018-01-26T00:27:06.589Z,39.40
2018-01-26T00:28:06.580Z,43.20
2018-01-26T00:29:06.578Z,42.10
2018-01-26T00:30:06.578Z,41.10
2018-01-26T00:31:06.572Z,43.10
2018-01-26T00:32:06.571Z,39.80
2018-01-26T00:33:06.571Z,36.80
2018-01-26T00:34:06.563Z,37.10
2018-01-26T00:35:06.564Z,38.10
2018-01-26T00:36:06.561Z,36.50
2018-01-26T00:37:06.556Z,34.80
2018-01-26T00:38:06.556Z,29.80
2018-01-26T00:39:06.552Z,30.70
2018-01-26T00:40:06.560Z,33.00
2018-01-26T00:41:06.545Z,35.80
2018-01-26T00:42:06.542Z,41.10
2018-01-26T00:43:06.543Z,37.30
2018-01-26T00:44:06.536Z,38.80
2018-01-26T00:45:06.534Z,35.10
2018-01-26T00:46:06.532Z,35.50
2018-01-26T00:47:06.529Z,38.00
2018-01-26T00:48:06.525Z,39.50
2018-01-26T00:49:06.524Z,38.70
2018-01-26T00:50:06.527Z,40.10
2018-01-26T00:51:06.520Z,48.30
2018-01-26T00:52:06.515Z,39.30
2018-01-26T00:53:06.516Z,33.90
2018-01-26T00:54:06.509Z,34.40
2018-01-26T00:55:06.506Z,40.20
2018-01-26T00:56:06.503Z,39.10
2018-01-26T00:57:06.501Z,39.10
2018-01-26T00:58:06.497Z,52.90
2018-01-26T00:59:06.497Z,59.60
2018-01-26T01:00:06.493Z,39.40
2018-01-26T01:01:06.489Z,35.20
2018-01-26T01:02:06.486Z,35.20
2018-01-26T01:03:06.484Z,41.60
2018-01-26T01:04:06.481Z,39.80
2018-01-26T01:05:06.478Z,41.80
2018-01-26T01:06:06.476Z,45.10
2018-01-26T01:07:06.474Z,43.20
2018-01-26T01:08:06.470Z,47.80
2018-01-26T01:09:06.466Z,42.40
2018-01-26T01:10:06.467Z,40.30
2018-01-26T01:11:06.462Z,60.60
2018-01-26T01:12:06.459Z,42.70
2018-01-26T01:13:06.455Z,70.60
2018-01-26T01:14:06.457Z,60.60
2018-01-26T01:15:06.451Z,70.50
2018-01-26T01:16:06.448Z,77.50
2018-01-26T01:17:06.445Z,70.00
2018-01-26T01:18:06.442Z,74.20
2018-01-26T01:19:06.440Z,63.00
2018-01-26T01:20:06.433Z,53.60
2018-01-26T01:21:06.434Z,52.70
2018-01-26T01:22:06.429Z,75.60
2018-01-26T01:23:06.427Z,63.90
2018-01-26T01:24:06.423Z,52.30
2018-01-26T01:25:06.421Z,75.70
2018-01-26T01:26:06.419Z,51.70
2018-01-26T01:27:06.414Z,43.40
2018-01-26T01:28:06.411Z,40.50
2018-01-26T01:29:06.407Z,51.40
2018-01-26T01:30:06.405Z,54.80
2018-01-26T01:31:06.402Z,50.20
2018-01-26T01:32:06.401Z,48.60
2018-01-26T01:33:06.400Z,43.60
2018-01-26T01:34:06.394Z,43.40
2018-01-26T01:35:06.387Z,46.10
2018-01-26T01:36:06.388Z,48.80
2018-01-26T01:37:06.384Z,56.10
2018-01-26T01:38:06.386Z,75.40
2018-01-26T01:39:06.378Z,70.50
2018-01-26T01:40:06.375Z,80.70
2018-01-26T01:41:06.372Z,52.00
2018-01-26T01:42:06.370Z,50.70
2018-01-26T01:43:06.381Z,58.40
2018-01-26T01:44:06.367Z,46.50
2018-01-26T01:45:06.360Z,44.90
2018-01-26T01:46:06.356Z,47.20
2018-01-26T01:47:06.355Z,39.00
2018-01-26T01:48:06.352Z,49.30
2018-01-26T01:49:06.351Z,54.20
2018-01-26T01:50:06.345Z,42.70
2018-01-26T01:51:06.343Z,48.20
2018-01-26T01:52:06.339Z,43.40
2018-01-26T01:53:06.335Z,49.70
2018-01-26T01:54:06.332Z,51.50
2018-01-26T01:55:06.332Z,49.30
2018-01-26T01:56:06.328Z,62.30
2018-01-26T01:57:06.325Z,51.30
2018-01-26T01:58:06.349Z,55.50
2018-01-26T01:59:06.319Z,57.00
2018-01-26T02:00:06.314Z,48.80
2018-01-26T02:01:06.311Z,64.20
2018-01-26T02:02:06.309Z,53.70
2018-01-26T02:03:06.306Z,45.20
2018-01-26T02:04:06.304Z,42.70
2018-01-26T02:05:06.299Z,44.80
2018-01-26T02:06:06.299Z,41.70
2018-01-26T02:07:06.294Z,41.10
2018-01-26T02:08:06.287Z,56.70
2018-01-26T02:09:06.286Z,44.30
2018-01-26T02:10:06.282Z,43.50
2018-01-26T02:11:06.283Z,54.80
2018-01-26T02:12:06.304Z,49.70
2018-01-26T02:13:06.274Z,46.10
2018-01-26T02:14:06.274Z,42.00
2018-01-26T02:15:06.271Z,48.90
2018-01-26T02:16:06.270Z,63.90
2018-01-26T02:17:06.267Z,58.60
2018-01-26T02:18:06.259Z,57.90
2018-01-26T02:19:06.261Z,76.10
2018-01-26T02:20:06.254Z,95.30
2018-01-26T02:21:06.251Z,56.80
2018-01-26T02:22:06.251Z,47.10
2018-01-26T02:23:06.248Z,56.00
2018-01-26T02:24:06.244Z,53.90
2018-01-26T02:25:06.240Z,55.80
2018-01-26T02:26:06.236Z,54.20
2018-01-26T02:27:06.233Z,54.50
2018-01-26T02:28:06.229Z,47.20
2018-01-26T02:29:06.226Z,61.50
2018-01-26T02:30:06.228Z,56.70
2018-01-26T02:31:06.222Z,43.80
2018-01-26T02:32:06.218Z,56.00
2018-01-26T02:33:06.214Z,85.90
2018-01-26T02:34:06.212Z,54.00
2018-01-26T02:35:06.208Z,62.50
2018-01-26T02:36:06.205Z,63.90
2018-01-26T02:37:06.203Z,59.30
2018-01-26T02:38:06.201Z,58.40
2018-01-26T02:39:06.198Z,48.70
2018-01-26T02:40:06.197Z,43.90
2018-01-26T02:41:06.203Z,43.10
2018-01-26T02:42:06.190Z,38.30
2018-01-26T02:43:06.182Z,40.30
2018-01-26T02:44:06.182Z,45.60
2018-01-26T02:45:06.178Z,45.40
2018-01-26T02:46:06.179Z,39.10
2018-01-26T02:47:06.178Z,43.40
2018-01-26T02:48:06.170Z,44.00
2018-01-26T02:49:06.167Z,40.80
2018-01-26T02:50:06.164Z,46.80
2018-01-26T02:51:06.161Z,48.10
2018-01-26T02:52:06.158Z,44.50
2018-01-26T02:53:06.159Z,79.00
2018-01-26T02:54:06.160Z,62.60
2018-01-26T02:55:06.154Z,70.80
2018-01-26T02:56:06.146Z,102.20
2018-01-26T02:57:06.145Z,98.00
2018-01-26T02:58:06.139Z,112.10
2018-01-26T02:59:06.136Z,85.50
2018-01-26T03:00:06.133Z,85.40
2018-01-26T03:01:06.134Z,100.40
2018-01-26T03:02:06.122Z,96.70
2018-01-26T03:03:06.124Z,64.70
2018-01-26T03:04:06.120Z,65.50
2018-01-26T03:05:06.114Z,52.80
2018-01-26T03:06:06.116Z,45.30
2018-01-26T03:07:06.110Z,40.20
2018-01-26T03:08:06.106Z,53.00
2018-01-26T03:09:06.103Z,64.20
2018-01-26T03:10:06.102Z,61.40
2018-01-26T03:11:06.097Z,48.10
2018-01-26T03:12:06.089Z,53.00
2018-01-26T03:13:06.093Z,65.40
2018-01-26T03:14:06.090Z,98.50
2018-01-26T03:15:06.084Z,111.80
2018-01-26T03:16:06.081Z,103.50
2018-01-26T03:17:06.079Z,82.40
2018-01-26T03:18:06.076Z,62.10
2018-01-26T03:19:06.071Z,71.90
2018-01-26T03:20:06.067Z,49.10
2018-01-26T03:21:06.061Z,53.80
2018-01-26T03:22:06.068Z,63.00
2018-01-26T03:23:06.059Z,60.50
2018-01-26T03:24:06.055Z,53.30
2018-01-26T03:25:06.051Z,52.70
2018-01-26T03:26:06.047Z,47.80
2018-01-26T03:27:06.047Z,49.00
2018-01-26T03:28:06.044Z,48.20
2018-01-26T03:29:06.044Z,61.70
2018-01-26T03:30:06.038Z,46.80
2018-01-26T03:31:06.031Z,48.20
2018-01-26T03:32:06.031Z,44.40
2018-01-26T03:33:06.024Z,71.80
2018-01-26T03:34:06.020Z,50.90
2018-01-26T03:35:06.017Z,59.00
2018-01-26T03:36:06.012Z,78.90
2018-01-26T03:37:06.017Z,53.20
2018-01-26T03:38:06.010Z,68.80
2018-01-26T03:39:06.003Z,64.20
2018-01-26T03:40:06.000Z,91.30
2018-01-26T03:41:05.997Z,97.80
2018-01-26T03:42:05.993Z,85.10
2018-01-26T03:43:05.994Z,108.80
2018-01-26T03:44:05.986Z,63.10
2018-01-26T03:45:05.982Z,69.30
2018-01-26T03:46:05.983Z,112.90
2018-01-26T03:47:05.977Z,70.30
2018-01-26T03:48:05.971Z,79.40
2018-01-26T03:49:05.971Z,100.90
2018-01-26T03:50:05.965Z,69.10
2018-01-26T03:51:05.962Z,144.10
2018-01-26T03:52:05.958Z,114.90
2018-01-26T03:53:05.957Z,147.70
2018-01-26T03:54:05.949Z,119.40
2018-01-26T03:55:05.949Z,126.50
2018-01-26T03:56:05.943Z,63.50
2018-01-26T03:57:05.948Z,155.50
2018-01-26T03:58:05.938Z,111.50
2018-01-26T03:59:05.935Z,110.30
2018-01-26T04:00:05.934Z,123.00
2018-01-26T04:01:05.927Z,280.50
2018-01-26T04:02:05.928Z,94.50
2018-01-26T04:03:05.921Z,75.50
2018-01-26T04:04:05.918Z,76.60
2018-01-26T04:05:05.913Z,76.70
2018-01-26T04:06:05.911Z,114.60
2018-01-26T04:07:05.914Z,116.80
2018-01-26T04:08:05.902Z,87.50
2018-01-26T04:09:05.899Z,152.60
2018-01-26T04:10:05.896Z,106.80
2018-01-26T04:11:05.893Z,108.10
2018-01-26T04:12:05.890Z,168.00
2018-01-26T04:13:05.885Z,106.60
2018-01-26T04:14:05.882Z,157.50
2018-01-26T04:15:05.879Z,145.20
2018-01-26T04:16:05.876Z,169.80
2018-01-26T04:17:05.871Z,229.70
2018-01-26T04:18:05.873Z,147.20
2018-01-26T04:19:05.867Z,132.20
2018-01-26T04:20:05.860Z,136.60
2018-01-26T04:21:05.858Z,119.90
2018-01-26T04:22:05.854Z,120.80
2018-01-26T04:23:05.854Z,112.00
2018-01-26T04:24:05.846Z,134.50
2018-01-26T04:25:05.843Z,134.80
2018-01-26T04:26:05.841Z,131.60
2018-01-26T04:27:05.835Z,126.10
2018-01-26T04:28:05.833Z,130.50
2018-01-26T04:29:05.859Z,122.90
2018-01-26T04:30:05.827Z,118.70
2018-01-26T04:31:05.824Z,105.60
2018-01-26T04:32:05.818Z,89.70
2018-01-26T04:33:05.813Z,109.00
2018-01-26T04:34:05.809Z,117.70
2018-01-26T04:35:05.808Z,102.70
2018-01-26T04:36:05.800Z,81.20
2018-01-26T04:37:05.802Z,99.30
2018-01-26T04:38:05.794Z,92.30
2018-01-26T04:39:05.790Z,110.10
2018-01-26T04:40:05.784Z,91.50
2018-01-26T04:41:05.780Z,111.10
2018-01-26T04:42:05.780Z,96.80
2018-01-26T04:43:05.775Z,100.40
2018-01-26T04:44:05.768Z,89.10
2018-01-26T04:45:05.768Z,106.70
2018-01-26T04:46:05.762Z,86.90
2018-01-26T04:47:05.759Z,99.10
2018-01-26T04:48:05.753Z,98.10
2018-01-26T04:49:05.749Z,97.70
2018-01-26T04:50:05.746Z,86.80
2018-01-26T04:51:05.744Z,106.00
2018-01-26T04:52:05.736Z,79.40
2018-01-26T04:53:05.732Z,80.00
2018-01-26T04:54:05.730Z,81.60
2018-01-26T04:55:05.724Z,80.70
2018-01-26T04:56:05.721Z,91.40
2018-01-26T04:57:05.717Z,77.50
2018-01-26T04:58:05.712Z,100.50
2018-01-26T04:59:05.708Z,65.50
2018-01-26T05:00:05.705Z,62.90
2018-01-26T05:01:05.728Z,66.70
2018-01-26T05:02:05.694Z,70.20
2018-01-26T05:03:05.695Z,91.70
2018-01-26T05:04:05.689Z,65.20
2018-01-26T05:05:05.689Z,64.30
2018-01-26T05:06:05.679Z,53.70
2018-01-26T05:07:05.676Z,56.40
2018-01-26T05:08:05.672Z,59.10
2018-01-26T05:09:05.668Z,57.90
2018-01-26T05:10:05.664Z,66.40
2018-01-26T05:11:05.659Z,40.90
2018-01-26T05:12:05.653Z,45.10
2018-01-26T05:13:05.651Z,38.90
2018-01-26T05:14:05.646Z,47.50
2018-01-26T05:15:05.645Z,41.50
2018-01-26T05:16:05.639Z,40.90
2018-01-26T05:17:05.633Z,41.80
2018-01-26T05:18:05.631Z,55.60
2018-01-26T05:19:05.625Z,55.20
2018-01-26T05:20:05.626Z,47.80
2018-01-26T05:21:05.617Z,43.60
2018-01-26T05:22:05.612Z,36.40
2018-01-26T05:23:05.617Z,39.90
2018-01-26T05:24:05.601Z,44.00
2018-01-26T05:25:05.609Z,32.30
2018-01-26T05:26:05.595Z,32.90
2018-01-26T05:27:05.594Z,36.50
2018-01-26T05:28:05.587Z,36.20
2018-01-26T05:29:05.584Z,39.90
2018-01-26T05:30:05.580Z,37.60
2018-01-26T05:31:05.573Z,47.40
2018-01-26T05:32:05.571Z,32.60
2018-01-26T05:33:05.566Z,41.50
2018-01-26T05:34:05.565Z,52.70
2018-01-26T05:35:05.566Z,91.30
2018-01-26T05:36:05.557Z,58.30
2018-01-26T05:37:05.550Z,59.70
2018-01-26T05:38:05.544Z,57.10
2018-01-26T05:39:05.540Z,60.30
2018-01-26T05:40:05.533Z,57.70
2018-01-26T05:41:05.530Z,52.70
2018-01-26T05:42:05.525Z,69.70
2018-01-26T05:43:05.521Z,73.90
2018-01-26T05:44:05.525Z,61.00
2018-01-26T05:45:05.512Z,48.60
2018-01-26T05:46:05.511Z,58.00
2018-01-26T05:47:05.503Z,50.50
2018-01-26T05:48:05.500Z,57.00
2018-01-26T05:49:05.495Z,51.50
2018-01-26T05:50:05.495Z,54.20
2018-01-26T05:51:05.485Z,52.10
2018-01-26T05:52:05.480Z,40.30
2018-01-26T05:53:05.475Z,40.30
2018-01-26T05:54:05.470Z,40.40
2018-01-26T05:55:05.467Z,47.90
2018-01-26T05:56:05.465Z,48.90
2018-01-26T05:57:05.458Z,46.80
2018-01-26T05:58:05.453Z,47.00
2018-01-26T05:59:05.448Z,46.50
2018-01-26T06:00:05.446Z,44.80
2018-01-26T06:01:05.443Z,47.60
2018-01-26T06:02:05.435Z,49.10
2018-01-26T06:03:05.429Z,46.50
2018-01-26T06:04:05.425Z,53.00
2018-01-26T06:05:05.419Z,56.90
2018-01-26T06:06:05.417Z,62.30
2018-01-26T06:07:05.417Z,50.70
2018-01-26T06:08:05.410Z,49.70
2018-01-26T06:09:05.402Z,53.50
2018-01-26T06:10:05.398Z,80.00
2018-01-26T06:11:05.394Z,64.40
2018-01-26T06:12:05.390Z,74.70
2018-01-26T06:13:05.384Z,76.30
2018-01-26T06:14:05.380Z,61.50
2018-01-26T06:15:05.375Z,58.30
2018-01-26T06:16:05.370Z,65.30
2018-01-26T06:17:05.364Z,73.50
2018-01-26T06:18:05.366Z,74.60
2018-01-26T06:19:05.355Z,95.80
2018-01-26T06:20:05.352Z,65.70
2018-01-26T06:21:05.348Z,81.70
2018-01-26T06:22:05.425Z,69.20
2018-01-26T06:23:05.339Z,64.30
2018-01-26T06:24:05.333Z,66.60
2018-01-26T06:25:05.329Z,67.00
2018-01-26T06:26:05.326Z,71.20
2018-01-26T06:27:05.323Z,77.50
2018-01-26T06:28:05.317Z,138.90
2018-01-26T06:29:05.311Z,80.00
2018-01-26T06:30:05.307Z,83.30
2018-01-26T06:31:05.307Z,93.30
2018-01-26T06:32:05.306Z,78.50
2018-01-26T06:33:05.294Z,82.60
2018-01-26T06:34:05.291Z,86.20
2018-01-26T06:35:05.285Z,92.70
2018-01-26T06:36:05.282Z,105.30
2018-01-26T06:37:05.286Z,102.10
2018-01-26T06:38:05.273Z,110.00
2018-01-26T06:39:05.270Z,106.60
2018-01-26T06:40:05.262Z,111.10
2018-01-26T06:41:05.267Z,92.90
2018-01-26T06:42:05.258Z,105.30
2018-01-26T06:43:05.257Z,113.00
2018-01-26T06:44:05.250Z,92.50
2018-01-26T06:45:05.245Z,95.60
2018-01-26T06:46:05.243Z,87.30
2018-01-26T06:47:05.235Z,75.30
2018-01-26T06:48:05.231Z,83.10
2018-01-26T06:49:05.231Z,90.80
2018-01-26T06:50:05.224Z,97.70
2018-01-26T06:51:05.220Z,100.00
2018-01-26T06:52:05.216Z,110.00
2018-01-26T06:53:05.207Z,122.50
2018-01-26T06:54:05.208Z,107.40
2018-01-26T06:55:05.206Z,122.10
2018-01-26T06:56:05.198Z,132.60
2018-01-26T06:57:05.195Z,107.40
2018-01-26T06:58:05.192Z,117.70
2018-01-26T06:59:05.188Z,109.70
2018-01-26T07:00:05.183Z,92.60
2018-01-26T07:01:05.181Z,103.30
2018-01-26T07:02:05.176Z,103.90
2018-01-26T07:03:05.173Z,100.80
2018-01-26T07:04:05.166Z,84.40
2018-01-26T07:05:05.167Z,98.40
2018-01-26T07:06:05.161Z,100.30
2018-01-26T07:07:05.166Z,98.00
2018-01-26T07:08:05.153Z,117.50
2018-01-26T07:09:05.148Z,93.80
2018-01-26T07:10:05.146Z,80.50
2018-01-26T07:11:05.142Z,83.40
2018-01-26T07:12:05.141Z,85.50
2018-01-26T07:13:05.134Z,96.00
2018-01-26T07:14:05.146Z,98.80
2018-01-26T07:15:05.125Z,95.70
2018-01-26T07:16:05.121Z,75.20
2018-01-26T07:17:05.122Z,80.90
2018-01-26T07:18:05.115Z,74.70
2018-01-26T07:19:05.113Z,89.30
2018-01-26T07:20:05.106Z,98.50
2018-01-26T07:21:05.104Z,87.50
2018-01-26T07:22:05.100Z,86.50
2018-01-26T07:23:05.094Z,96.30
2018-01-26T07:24:05.092Z,94.80
2018-01-26T07:25:05.086Z,78.10
2018-01-26T07:26:05.083Z,86.30
2018-01-26T07:27:05.081Z,98.20
2018-01-26T07:28:05.076Z,76.90
2018-01-26T07:29:05.069Z,85.00
2018-01-26T07:30:05.066Z,108.60
2018-01-26T07:31:05.062Z,108.90
2018-01-26T07:32:05.060Z,89.40
2018-01-26T07:33:05.052Z,89.20
2018-01-26T07:34:05.049Z,110.90
2018-01-26T07:35:05.048Z,118.00
2018-01-26T07:36:05.045Z,99.00
2018-01-26T07:37:05.044Z,119.60
2018-01-26T07:38:05.034Z,103.50
2018-01-26T07:39:05.032Z,90.40
2018-01-26T07:40:05.027Z,84.70
2018-01-26T07:41:05.022Z,120.90
2018-01-26T07:42:05.018Z,141.50
2018-01-26T07:43:05.017Z,111.30
2018-01-26T07:44:05.012Z,106.20
2018-01-26T07:45:05.005Z,97.50
2018-01-26T07:46:05.005Z,111.30
2018-01-26T07:47:05.001Z,148.70
2018-01-26T07:48:04.998Z,123.30
2018-01-26T07:49:04.990Z,92.00
2018-01-26T07:50:04.988Z,114.00
2018-01-26T07:51:04.985Z,122.70
2018-01-26T07:52:04.981Z,124.00
2018-01-26T07:53:04.978Z,98.90
2018-01-26T07:54:04.971Z,88.80
2018-01-26T07:55:04.971Z,75.90
2018-01-26T07:56:04.965Z,85.30
2018-01-26T07:57:04.961Z,124.60
2018-01-26T07:58:04.964Z,122.60
2018-01-26T07:59:04.956Z,125.60
2018-01-26T08:00:04.950Z,89.90
2018-01-26T08:01:04.950Z,100.70
2018-01-26T08:02:04.944Z,117.00
2018-01-26T08:03:05.008Z,99.80
2018-01-26T08:04:04.938Z,100.60
2018-01-26T08:05:04.934Z,96.30
2018-01-26T08:06:04.929Z,125.50
2018-01-26T08:07:04.922Z,113.20
2018-01-26T08:08:04.921Z,116.20
2018-01-26T08:09:04.918Z,127.00
2018-01-26T08:10:04.914Z,127.50
2018-01-26T08:11:04.910Z,123.30
2018-01-26T08:12:04.906Z,152.90
2018-01-26T08:13:04.905Z,138.50
2018-01-26T08:14:04.900Z,105.90
2018-01-26T08:15:04.896Z,136.40
2018-01-26T08:16:04.891Z,158.20
2018-01-26T08:17:04.887Z,172.70
2018-01-26T08:18:04.886Z,150.50
2018-01-26T08:19:04.880Z,136.00
2018-01-26T08:20:04.876Z,150.90
2018-01-26T08:21:04.872Z,145.40
2018-01-26T08:22:04.867Z,119.50
2018-01-26T08:23:04.866Z,123.30
2018-01-26T08:24:04.859Z,142.90
2018-01-26T08:25:04.856Z,138.30
2018-01-26T08:26:04.851Z,126.00
2018-01-26T08:27:04.848Z,118.70
2018-01-26T08:28:04.847Z,131.50
2018-01-26T08:29:04.840Z,109.70
2018-01-26T08:30:04.840Z,133.50
2018-01-26T08:31:04.833Z,99.10
2018-01-26T08:32:04.828Z,127.00
2018-01-26T08:33:04.825Z,127.80
2018-01-26T08:34:04.818Z,113.70
2018-01-26T08:35:04.817Z,123.40
2018-01-26T08:36:04.812Z,113.00
2018-01-26T08:37:04.812Z,115.10
2018-01-26T08:38:04.807Z,100.90
2018-01-26T08:39:04.802Z,99.30
2018-01-26T08:40:04.798Z,121.30
2018-01-26T08:41:04.792Z,101.70
2018-01-26T08:42:04.797Z,77.20
2018-01-26T08:43:04.786Z,83.70
2018-01-26T08:44:04.782Z,95.90
2018-01-26T08:45:04.779Z,110.60
2018-01-26T08:46:04.777Z,96.10
2018-01-26T08:47:04.776Z,112.30
2018-01-26T08:48:04.770Z,97.40
2018-01-26T08:49:04.851Z,97.40
2018-01-26T08:50:04.762Z,101.00
2018-01-26T08:51:04.758Z,118.40
2018-01-26T08:52:04.752Z,101.90
2018-01-26T08:53:04.750Z,86.70
2018-01-26T08:54:04.747Z,89.30
2018-01-26T08:55:04.742Z,123.50
2018-01-26T08:56:04.741Z,162.30
2018-01-26T08:57:04.735Z,126.50
2018-01-26T08:58:04.731Z,111.40
2018-01-26T08:59:04.731Z,118.50
2018-01-26T09:00:04.724Z,198.50
2018-01-26T09:01:04.718Z,180.10
2018-01-26T09:02:04.717Z,116.20
2018-01-26T09:03:04.714Z,120.80
2018-01-26T09:04:04.710Z,166.40
2018-01-26T09:05:04.705Z,136.70
2018-01-26T09:06:04.700Z,143.30
2018-01-26T09:07:04.698Z,139.40
2018-01-26T09:08:04.695Z,142.20
2018-01-26T09:09:04.691Z,131.20
2018-01-26T09:10:04.688Z,150.30
2018-01-26T09:11:04.683Z,126.80
2018-01-26T09:12:04.680Z,128.70
2018-01-26T09:13:04.676Z,134.00
2018-01-26T09:14:04.677Z,127.80
2018-01-26T09:15:04.670Z,97.20
2018-01-26T09:16:04.696Z,103.10
2018-01-26T09:17:04.663Z,95.90
2018-01-26T09:18:04.658Z,87.40
2018-01-26T09:19:04.656Z,94.20
2018-01-26T09:20:04.651Z,96.90
2018-01-26T09:21:04.650Z,100.70
2018-01-26T09:22:04.645Z,116.20
2018-01-26T09:23:04.640Z,111.80
2018-01-26T09:24:04.636Z,97.40
2018-01-26T09:25:04.633Z,101.80
2018-01-26T09:26:04.629Z,106.60
2018-01-26T09:27:04.627Z,96.10
2018-01-26T09:28:04.632Z,111.10
2018-01-26T09:29:04.624Z,114.20
2018-01-26T09:30:04.617Z,116.30
2018-01-26T09:31:04.613Z,108.00
2018-01-26T09:32:04.608Z,106.60
2018-01-26T09:33:04.610Z,102.70
2018-01-26T09:34:04.608Z,88.10
2018-01-26T09:35:04.598Z,101.40
2018-01-26T09:36:04.594Z,112.60
2018-01-26T09:37:04.591Z,121.00
2018-01-26T09:38:04.589Z,115.00
2018-01-26T09:39:04.584Z,114.40
2018-01-26T09:40:04.580Z,138.80
2018-01-26T09:41:04.582Z,116.80
2018-01-26T09:42:04.575Z,99.00
2018-01-26T09:43:04.573Z,113.10
2018-01-26T09:44:04.567Z,117.60
2018-01-26T09:45:04.586Z,113.10
2018-01-26T09:46:04.562Z,107.40
2018-01-26T09:47:04.557Z,103.40
2018-01-26T09:48:04.552Z,123.00
2018-01-26T09:49:04.549Z,138.70
2018-01-26T09:50:04.546Z,104.10
2018-01-26T09:51:04.543Z,117.00
2018-01-26T09:52:04.539Z,103.10
2018-01-26T09:53:04.535Z,114.10
2018-01-26T09:54:04.532Z,92.60
2018-01-26T09:55:04.524Z,79.80
2018-01-26T09:56:04.523Z,83.80
2018-01-26T09:57:04.521Z,90.00
2018-01-26T09:58:04.518Z,94.90
2018-01-26T09:59:04.517Z,84.20
2018-01-26T10:00:04.550Z,87.90
2018-01-26T10:01:04.507Z,100.70
2018-01-26T10:02:04.501Z,95.00
2018-01-26T10:03:04.498Z,90.00
2018-01-26T10:04:04.495Z,94.90
2018-01-26T10:05:04.491Z,95.10
2018-01-26T10:06:04.487Z,108.20
2018-01-26T10:07:04.488Z,94.20
2018-01-26T10:08:04.480Z,103.80
2018-01-26T10:09:04.478Z,91.60
2018-01-26T10:10:04.475Z,102.60
2018-01-26T10:11:04.473Z,101.20
2018-01-26T10:12:04.468Z,105.40
2018-01-26T10:13:04.461Z,102.00
2018-01-26T10:14:04.457Z,112.70
2018-01-26T10:15:04.456Z,128.50
2018-01-26T10:16:04.451Z,125.70
2018-01-26T10:17:04.447Z,122.80
2018-01-26T10:18:04.446Z,99.00
2018-01-26T10:19:04.442Z,104.30
2018-01-26T10:20:04.436Z,98.50
2018-01-26T10:21:04.434Z,102.40
2018-01-26T10:22:04.429Z,99.80
2018-01-26T10:23:04.425Z,97.60
2018-01-26T10:24:04.422Z,93.40
2018-01-26T10:25:04.416Z,111.40
2018-01-26T10:26:04.415Z,116.90
2018-01-26T10:27:04.414Z,106.00
2018-01-26T10:28:04.436Z,115.30
2018-01-26T10:29:04.405Z,136.00
2018-01-26T10:30:04.404Z,166.30
2018-01-26T10:31:04.396Z,120.40
2018-01-26T10:32:04.391Z,134.60
2018-01-26T10:33:04.388Z,125.90
2018-01-26T10:34:04.384Z,111.00
2018-01-26T10:35:04.380Z,124.60
2018-01-26T10:36:04.378Z,144.70
2018-01-26T10:37:04.373Z,156.00
2018-01-26T10:38:04.373Z,126.60
2018-01-26T10:39:04.370Z,172.00
2018-01-26T10:40:04.360Z,132.60
2018-01-26T10:41:04.358Z,112.00
2018-01-26T10:42:04.355Z,115.70
2018-01-26T10:43:04.354Z,118.40
2018-01-26T10:44:04.346Z,79.70
2018-01-26T10:45:04.344Z,84.30
2018-01-26T10:46:04.340Z,92.10
2018-01-26T10:47:04.335Z,82.50
2018-01-26T10:48:04.333Z,110.90
2018-01-26T10:49:04.327Z,147.60
2018-01-26T10:50:04.324Z,119.00
2018-01-26T10:51:04.319Z,140.30
2018-01-26T10:52:04.315Z,116.20
2018-01-26T10:53:04.316Z,92.50
2018-01-26T10:54:04.313Z,83.20
2018-01-26T10:55:04.304Z,71.70
2018-01-26T10:56:04.298Z,81.10
2018-01-26T10:57:04.296Z,87.10
2018-01-26T10:58:04.292Z,90.30
2018-01-26T10:59:04.318Z,85.00
2018-01-26T11:00:04.289Z,85.00
2018-01-26T11:01:04.280Z,88.10
2018-01-26T11:02:04.276Z,89.70
2018-01-26T11:03:04.275Z,77.90
2018-01-26T11:04:04.266Z,81.40
2018-01-26T11:05:04.262Z,71.10
2018-01-26T11:06:04.261Z,83.20
2018-01-26T11:07:04.256Z,70.80
2018-01-26T11:08:04.253Z,66.60
2018-01-26T11:09:04.266Z,67.90
2018-01-26T11:10:04.244Z,63.60
2018-01-26T11:11:04.240Z,89.50
2018-01-26T11:12:04.250Z,102.90
2018-01-26T11:13:04.279Z,74.20
2018-01-26T11:14:04.229Z,77.50
2018-01-26T11:15:04.227Z,75.30
2018-01-26T11:16:04.220Z,106.60
2018-01-26T11:17:04.216Z,74.10
2018-01-26T11:18:04.212Z,58.50
2018-01-26T11:19:04.209Z,83.40
2018-01-26T11:20:04.202Z,81.10
2018-01-26T11:21:04.199Z,63.00
2018-01-26T11:22:04.205Z,64.10
2018-01-26T11:23:04.195Z,60.90
2018-01-26T11:24:04.195Z,61.10
2018-01-26T11:25:04.182Z,69.00
2018-01-26T11:26:04.180Z,58.40
2018-01-26T11:27:04.179Z,84.70
2018-01-26T11:28:04.171Z,58.30
2018-01-26T11:29:04.167Z,50.30
2018-01-26T11:30:04.162Z,51.20
2018-01-26T11:31:04.160Z,54.20
2018-01-26T11:32:04.151Z,51.40
2018-01-26T11:33:04.152Z,38.10
2018-01-26T11:34:04.148Z,33.80
2018-01-26T11:35:04.144Z,31.70
2018-01-26T11:36:04.140Z,41.00
2018-01-26T11:37:04.138Z,46.30
2018-01-26T11:38:04.131Z,55.60
2018-01-26T11:39:04.128Z,48.40
2018-01-26T11:40:04.121Z,55.50
2018-01-26T11:41:04.119Z,47.70
2018-01-26T11:42:04.117Z,53.40
2018-01-26T11:43:04.113Z,46.20
2018-01-26T11:44:04.109Z,41.20
2018-01-26T11:45:04.105Z,37.90
2018-01-26T11:46:04.101Z,31.20
2018-01-26T11:47:04.099Z,35.10
2018-01-26T11:48:04.095Z,24.70
2018-01-26T11:49:04.089Z,19.90
2018-01-26T11:50:04.084Z,23.10
2018-01-26T11:51:04.085Z,21.20
2018-01-26T11:52:04.077Z,16.80
2018-01-26T11:53:04.073Z,19.40
2018-01-26T11:54:04.071Z,22.70
2018-01-26T11:55:04.067Z,25.30
2018-01-26T11:56:04.063Z,26.20
2018-01-26T11:57:04.059Z,23.40
2018-01-26T11:58:04.055Z,21.80
2018-01-26T11:59:04.052Z,21.60
2018-01-26T12:00:04.048Z,19.50
2018-01-26T12:01:04.045Z,16.00
2018-01-26T12:02:04.040Z,16.00
2018-01-26T12:03:04.034Z,16.70
2018-01-26T12:04:04.032Z,14.80
2018-01-26T12:05:04.029Z,14.50
2018-01-26T12:06:04.033Z,16.70
2018-01-26T12:07:04.022Z,17.40
2018-01-26T12:08:04.017Z,13.90
2018-01-26T12:09:04.014Z,11.60
2018-01-26T12:10:04.009Z,11.20
2018-01-26T12:11:04.005Z,11.20
2018-01-26T12:12:04.004Z,10.10
2018-01-26T12:13:04.010Z,10.90
2018-01-26T12:14:03.999Z,10.00
2018-01-26T12:15:03.992Z,9.40
2018-01-26T12:16:03.986Z,9.00
2018-01-26T12:17:03.986Z,10.80
2018-01-26T12:18:03.982Z,8.80
2018-01-26T12:19:03.976Z,9.60
2018-01-26T12:20:03.971Z,10.20
2018-01-26T12:21:03.968Z,10.00
2018-01-26T12:22:03.963Z,10.90
2018-01-26T12:23:03.959Z,11.30
2018-01-26T12:24:04.002Z,9.80
2018-01-26T12:25:03.952Z,10.60
2018-01-26T12:26:03.947Z,10.00
2018-01-26T12:27:03.943Z,9.50
2018-01-26T12:28:03.938Z,9.80
2018-01-26T12:29:03.936Z,9.50
2018-01-26T12:30:03.934Z,10.20
2018-01-26T12:31:03.927Z,10.10
2018-01-26T12:32:03.924Z,11.00
2018-01-26T12:33:03.918Z,10.10
2018-01-26T12:34:03.916Z,9.30
2018-01-26T12:35:03.913Z,10.30
2018-01-26T12:36:03.906Z,9.30
2018-01-26T12:37:03.904Z,9.40
2018-01-26T12:38:03.901Z,10.30
2018-01-26T12:39:03.896Z,9.80
2018-01-26T12:40:03.888Z,10.50
2018-01-26T12:41:03.886Z,10.40
2018-01-26T12:42:03.884Z,10.70
2018-01-26T12:43:03.879Z,10.30
2018-01-26T12:44:03.876Z,9.10
2018-01-26T12:45:03.871Z,9.40